sensor_id;sensor_type;location;lat;lon;timestamp;pressure;altitude;pressure_sealevel;temperature;humidity
39769;BME280;38939;47.824;14.642;2023-04-03T00:00:14;97316.63;;;4.57;83.54
39769;BME280;38939;47.824;14.642;2023-04-03T00:01:16;97311.47;;;4.57;82.91
39769;BME280;38939;47.824;14.642;2023-04-03T00:02:18;97312.94;;;4.60;82.87
39769;BME280;38939;47.824;14.642;2023-04-03T00:03:20;97313.94;;;4.67;83.28
39769;BME280;38939;47.824;14.642;2023-04-03T00:04:22;97314.28;;;4.72;83.14
39769;BME280;38939;47.824;14.642;2023-04-03T00:05:24;97319.28;;;4.74;83.51
39769;BME280;38939;47.824;14.642;2023-04-03T00:06:26;97319.97;;;4.76;83.75
39769;BME280;38939;47.824;14.642;2023-04-03T00:07:28;97319.00;;;4.77;83.63
39769;BME280;38939;47.824;14.642;2023-04-03T00:08:30;97315.94;;;4.81;83.55
39769;BME280;38939;47.824;14.642;2023-04-03T00:09:32;97321.63;;;4.85;83.74
39769;BME280;38939;47.824;14.642;2023-04-03T00:10:34;97314.53;;;4.87;84.13
39769;BME280;38939;47.824;14.642;2023-04-03T00:11:36;97320.50;;;4.88;83.85
39769;BME280;38939;47.824;14.642;2023-04-03T00:12:38;97320.34;;;4.89;83.67
39769;BME280;38939;47.824;14.642;2023-04-03T00:13:40;97317.25;;;4.86;83.43
39769;BME280;38939;47.824;14.642;2023-04-03T00:14:42;97307.22;;;4.82;83.47
39769;BME280;38939;47.824;14.642;2023-04-03T00:15:44;97310.78;;;4.81;83.01
39769;BME280;38939;47.824;14.642;2023-04-03T00:16:46;97313.47;;;4.72;82.24
39769;BME280;38939;47.824;14.642;2023-04-03T00:17:48;97312.19;;;4.76;82.27
39769;BME280;38939;47.824;14.642;2023-04-03T00:18:50;97310.28;;;4.78;82.83
39769;BME280;38939;47.824;14.642;2023-04-03T00:19:52;97309.97;;;4.81;82.98
39769;BME280;38939;47.824;14.642;2023-04-03T00:20:54;97308.84;;;4.84;83.31
39769;BME280;38939;47.824;14.642;2023-04-03T00:21:55;97313.69;;;4.87;83.41
39769;BME280;38939;47.824;14.642;2023-04-03T00:22:58;97317.09;;;4.87;83.67
39769;BME280;38939;47.824;14.642;2023-04-03T00:23:59;97319.50;;;4.89;84.14
39769;BME280;38939;47.824;14.642;2023-04-03T00:25:02;97314.34;;;4.89;83.45
39769;BME280;38939;47.824;14.642;2023-04-03T00:26:04;97315.84;;;4.91;84.17
39769;BME280;38939;47.824;14.642;2023-04-03T00:27:06;97315.69;;;4.93;84.40
39769;BME280;38939;47.824;14.642;2023-04-03T00:28:08;97318.09;;;4.94;84.68
39769;BME280;38939;47.824;14.642;2023-04-03T00:29:10;97312.91;;;4.94;84.44
39769;BME280;38939;47.824;14.642;2023-04-03T00:30:13;97316.50;;;4.93;84.78
39769;BME280;38939;47.824;14.642;2023-04-03T00:31:15;97312.91;;;4.94;84.84
39769;BME280;38939;47.824;14.642;2023-04-03T00:32:18;97318.75;;;4.96;84.67
39769;BME280;38939;47.824;14.642;2023-04-03T00:33:19;97318.91;;;4.95;84.67
39769;BME280;38939;47.824;14.642;2023-04-03T00:34:25;97318.28;;;4.93;84.51
39769;BME280;38939;47.824;14.642;2023-04-03T00:35:27;97317.44;;;4.92;84.20
39769;BME280;38939;47.824;14.642;2023-04-03T00:36:30;97310.19;;;4.96;84.55
39769;BME280;38939;47.824;14.642;2023-04-03T00:37:32;97309.22;;;4.97;84.49
39769;BME280;38939;47.824;14.642;2023-04-03T00:38:34;97317.94;;;4.96;84.98
39769;BME280;38939;47.824;14.642;2023-04-03T00:39:36;97312.91;;;4.94;84.84
39769;BME280;38939;47.824;14.642;2023-04-03T00:40:39;97308.06;;;4.91;85.21
39769;BME280;38939;47.824;14.642;2023-04-03T00:41:42;97311.75;;;4.89;85.21
39769;BME280;38939;47.824;14.642;2023-04-03T00:42:45;97309.66;;;4.84;85.92
39769;BME280;38939;47.824;14.642;2023-04-03T00:43:47;97312.38;;;4.82;85.59
39769;BME280;38939;47.824;14.642;2023-04-03T00:45:51;97307.03;;;4.76;86.52
39769;BME280;38939;47.824;14.642;2023-04-03T00:46:54;97310.28;;;4.78;86.54
39769;BME280;38939;47.824;14.642;2023-04-03T00:47:55;97314.50;;;4.79;86.07
39769;BME280;38939;47.824;14.642;2023-04-03T00:48:57;97309.66;;;4.84;86.50
39769;BME280;38939;47.824;14.642;2023-04-03T00:49:59;97310.97;;;4.88;86.64
39769;BME280;38939;47.824;14.642;2023-04-03T00:51:02;97309.69;;;4.92;86.46
39769;BME280;38939;47.824;14.642;2023-04-03T00:52:05;97312.91;;;4.94;86.47
39769;BME280;38939;47.824;14.642;2023-04-03T00:53:09;97318.31;;;5.01;85.87
39769;BME280;38939;47.824;14.642;2023-04-03T00:54:13;97314.59;;;5.04;86.15
39769;BME280;38939;47.824;14.642;2023-04-03T00:55:15;97314.72;;;5.02;85.79
39769;BME280;38939;47.824;14.642;2023-04-03T00:56:18;97317.28;;;4.94;85.27
39769;BME280;38939;47.824;14.642;2023-04-03T00:57:23;97314.41;;;4.97;85.55
39769;BME280;38939;47.824;14.642;2023-04-03T00:58:28;97314.41;;;4.97;85.51
39769;BME280;38939;47.824;14.642;2023-04-03T00:59:34;97312.25;;;4.92;85.99
39769;BME280;38939;47.824;14.642;2023-04-03T01:00:37;97315.97;;;4.90;85.69
39769;BME280;38939;47.824;14.642;2023-04-03T01:01:42;97309.50;;;4.86;85.90
39769;BME280;38939;47.824;14.642;2023-04-03T01:02:44;97311.56;;;4.82;85.79
39769;BME280;38939;47.824;14.642;2023-04-03T01:03:46;97308.69;;;4.85;86.01
39769;BME280;38939;47.824;14.642;2023-04-03T01:04:49;97316.94;;;4.89;85.80
39769;BME280;38939;47.824;14.642;2023-04-03T01:05:51;97313.53;;;4.88;86.03
39769;BME280;38939;47.824;14.642;2023-04-03T01:06:53;97321.28;;;4.88;86.17
39769;BME280;38939;47.824;14.642;2023-04-03T01:07:55;97312.09;;;4.86;85.57
39769;BME280;38939;47.824;14.642;2023-04-03T01:08:58;97313.03;;;4.85;85.61
39769;BME280;38939;47.824;14.642;2023-04-03T01:10:01;97311.91;;;4.79;85.58
39769;BME280;38939;47.824;14.642;2023-04-03T01:11:03;97307.69;;;4.78;85.98
39769;BME280;38939;47.824;14.642;2023-04-03T01:13:19;97317.88;;;4.79;85.87
39769;BME280;38939;47.824;14.642;2023-04-03T01:14:21;97317.06;;;4.79;85.94
39769;BME280;38939;47.824;14.642;2023-04-03T01:15:25;97321.13;;;4.81;85.75
39769;BME280;38939;47.824;14.642;2023-04-03T01:16:27;97318.38;;;4.83;85.73
39769;BME280;38939;47.824;14.642;2023-04-03T01:18:39;97312.59;;;4.89;85.48
39769;BME280;38939;47.824;14.642;2023-04-03T01:19:41;97312.59;;;4.89;85.41
39769;BME280;38939;47.824;14.642;2023-04-03T01:22:18;97307.41;;;4.89;86.10
39769;BME280;38939;47.824;14.642;2023-04-03T01:23:25;97312.25;;;4.92;85.68
39769;BME280;38939;47.824;14.642;2023-04-03T01:24:33;97316.00;;;4.98;85.19
39769;BME280;38939;47.824;14.642;2023-04-03T01:25:36;97317.13;;;4.95;85.45
39769;BME280;38939;47.824;14.642;2023-04-03T01:26:39;97322.31;;;4.95;85.56
39769;BME280;38939;47.824;14.642;2023-04-03T01:27:40;97323.44;;;4.93;85.23
39769;BME280;38939;47.824;14.642;2023-04-03T01:28:42;97322.16;;;4.97;85.32
39769;BME280;38939;47.824;14.642;2023-04-03T01:29:44;97321.19;;;4.98;85.91
39769;BME280;38939;47.824;14.642;2023-04-03T01:32:07;97317.94;;;4.96;85.93
39769;BME280;38939;47.824;14.642;2023-04-03T01:33:09;97308.22;;;4.90;86.21
39769;BME280;38939;47.824;14.642;2023-04-03T01:34:11;97317.75;;;4.89;86.31
39769;BME280;38939;47.824;14.642;2023-04-03T01:35:13;97312.59;;;4.89;85.91
39769;BME280;38939;47.824;14.642;2023-04-03T01:36:16;97316.50;;;4.93;85.68
39769;BME280;38939;47.824;14.642;2023-04-03T01:37:18;97317.28;;;4.94;86.17
39769;BME280;38939;47.824;14.642;2023-04-03T01:38:21;97321.16;;;4.90;85.58
39769;BME280;38939;47.824;14.642;2023-04-03T01:39:22;97327.94;;;4.91;85.97
39769;BME280;38939;47.824;14.642;2023-04-03T01:40:25;97324.03;;;4.87;86.14
39769;BME280;38939;47.824;14.642;2023-04-03T01:41:27;97324.88;;;4.87;86.16
39769;BME280;38939;47.824;14.642;2023-04-03T01:42:28;97324.53;;;4.90;86.46
39769;BME280;38939;47.824;14.642;2023-04-03T01:43:30;97319.38;;;4.90;85.94
39769;BME280;38939;47.824;14.642;2023-04-03T01:44:32;97326.94;;;4.84;86.12
39769;BME280;38939;47.824;14.642;2023-04-03T01:45:34;97325.81;;;4.86;85.68
39769;BME280;38939;47.824;14.642;2023-04-03T01:46:36;97325.34;;;4.91;85.97
39769;BME280;38939;47.824;14.642;2023-04-03T01:47:39;97320.84;;;4.93;86.07
39769;BME280;38939;47.824;14.642;2023-04-03T01:48:41;97326.81;;;4.93;85.74
39769;BME280;38939;47.824;14.642;2023-04-03T01:49:42;97321.00;;;4.91;86.40
39769;BME280;38939;47.824;14.642;2023-04-03T01:50:45;97321.28;;;4.88;86.79
39769;BME280;38939;47.824;14.642;2023-04-03T01:51:47;97316.47;;;4.85;86.72
39769;BME280;38939;47.824;14.642;2023-04-03T01:52:49;97331.13;;;4.85;87.04
39769;BME280;38939;47.824;14.642;2023-04-03T01:53:50;97328.53;;;4.85;87.07
39769;BME280;38939;47.824;14.642;2023-04-03T01:54:53;97328.50;;;4.76;87.45
39769;BME280;38939;47.824;14.642;2023-04-03T01:55:54;97331.91;;;4.69;87.85
39769;BME280;38939;47.824;14.642;2023-04-03T01:56:56;97331.53;;;4.64;87.34
39769;BME280;38939;47.824;14.642;2023-04-03T01:57:58;97329.75;;;4.64;87.87
39769;BME280;38939;47.824;14.642;2023-04-03T01:59:00;97325.88;;;4.68;88.00
39769;BME280;38939;47.824;14.642;2023-04-03T02:00:02;97331.28;;;4.75;87.35
39769;BME280;38939;47.824;14.642;2023-04-03T02:01:04;97331.75;;;4.78;88.09
39769;BME280;38939;47.824;14.642;2023-04-03T02:02:06;97330.34;;;4.84;87.18
39769;BME280;38939;47.824;14.642;2023-04-03T02:03:08;97322.09;;;4.89;87.46
39769;BME280;38939;47.824;14.642;2023-04-03T02:04:10;97322.94;;;4.89;86.97
39769;BME280;38939;47.824;14.642;2023-04-03T02:05:13;97320.66;;;4.86;86.12
39769;BME280;38939;47.824;14.642;2023-04-03T02:06:14;97322.28;;;4.87;86.40
39769;BME280;38939;47.824;14.642;2023-04-03T02:07:16;97325.53;;;4.89;86.20
39769;BME280;38939;47.824;14.642;2023-04-03T02:08:18;97333.09;;;4.91;86.13
39769;BME280;38939;47.824;14.642;2023-04-03T02:09:20;97327.78;;;4.92;85.85
39769;BME280;38939;47.824;14.642;2023-04-03T02:10:22;97327.47;;;4.95;86.24
39769;BME280;38939;47.824;14.642;2023-04-03T02:11:24;97322.81;;;4.99;86.29
39769;BME280;38939;47.824;14.642;2023-04-03T02:12:25;97326.50;;;4.96;86.08
39769;BME280;38939;47.824;14.642;2023-04-03T02:13:27;97325.03;;;4.94;86.30
39769;BME280;38939;47.824;14.642;2023-04-03T02:14:29;97323.88;;;4.88;86.56
39769;BME280;38939;47.824;14.642;2023-04-03T02:15:31;97325.66;;;4.88;86.54
39769;BME280;38939;47.824;14.642;2023-04-03T02:16:33;97321.97;;;4.90;86.93
39769;BME280;38939;47.824;14.642;2023-04-03T02:17:34;97317.28;;;4.94;86.64
39769;BME280;38939;47.824;14.642;2023-04-03T02:18:36;97320.69;;;4.94;86.77
39769;BME280;38939;47.824;14.642;2023-04-03T02:19:38;97319.06;;;4.93;86.64
39769;BME280;38939;47.824;14.642;2023-04-03T02:20:41;97310.66;;;4.91;87.08
39769;BME280;38939;47.824;14.642;2023-04-03T02:21:43;97315.31;;;4.88;87.29
39769;BME280;38939;47.824;14.642;2023-04-03T02:22:44;97315.19;;;4.89;87.37
39769;BME280;38939;47.824;14.642;2023-04-03T02:23:46;97317.91;;;4.88;87.43
39769;BME280;38939;47.824;14.642;2023-04-03T02:24:48;97316.13;;;4.88;87.22
39769;BME280;38939;47.824;14.642;2023-04-03T02:25:50;97317.75;;;4.89;87.31
39769;BME280;38939;47.824;14.642;2023-04-03T02:26:52;97319.69;;;4.87;86.98
39769;BME280;38939;47.824;14.642;2023-04-03T02:27:53;97319.69;;;4.87;86.80
39769;BME280;38939;47.824;14.642;2023-04-03T02:28:55;97319.50;;;4.89;86.87
39769;BME280;38939;47.824;14.642;2023-04-03T02:29:57;97320.59;;;4.78;86.54
39769;BME280;38939;47.824;14.642;2023-04-03T02:30:59;97314.78;;;4.76;87.06
39769;BME280;38939;47.824;14.642;2023-04-03T02:32:01;97319.81;;;4.77;87.08
39769;BME280;38939;47.824;14.642;2023-04-03T02:33:03;97319.81;;;4.77;87.15
39769;BME280;38939;47.824;14.642;2023-04-03T02:34:05;97320.13;;;4.82;87.24
39769;BME280;38939;47.824;14.642;2023-04-03T02:35:07;97316.28;;;4.87;87.29
39769;BME280;38939;47.824;14.642;2023-04-03T02:36:09;97316.47;;;4.85;86.77
39769;BME280;38939;47.824;14.642;2023-04-03T02:37:11;97312.22;;;4.84;87.06
39769;BME280;38939;47.824;14.642;2023-04-03T02:38:13;97326.63;;;4.87;87.08
39769;BME280;38939;47.824;14.642;2023-04-03T02:39:15;97325.34;;;4.91;86.97
39769;BME280;38939;47.824;14.642;2023-04-03T02:40:17;97316.63;;;4.92;87.04
39769;BME280;38939;47.824;14.642;2023-04-03T02:41:19;97326.19;;;4.91;86.88
39769;BME280;38939;47.824;14.642;2023-04-03T02:42:22;97321.50;;;4.95;86.47
39769;BME280;38939;47.824;14.642;2023-04-03T02:43:24;97317.78;;;4.97;86.78
39769;BME280;38939;47.824;14.642;2023-04-03T02:44:26;97321.69;;;5.01;86.65
39769;BME280;38939;47.824;14.642;2023-04-03T02:45:27;97318.13;;;5.03;86.65
39769;BME280;38939;47.824;14.642;2023-04-03T02:46:29;97323.63;;;4.99;85.87
39769;BME280;38939;47.824;14.642;2023-04-03T02:47:31;97321.97;;;4.98;86.57
39769;BME280;38939;47.824;14.642;2023-04-03T02:48:33;97317.47;;;5.00;86.46
39769;BME280;38939;47.824;14.642;2023-04-03T02:49:35;97322.81;;;4.99;86.89
39769;BME280;38939;47.824;14.642;2023-04-03T02:50:37;97319.38;;;4.90;86.57
39769;BME280;38939;47.824;14.642;2023-04-03T02:51:39;97318.06;;;4.86;87.04
39769;BME280;38939;47.824;14.642;2023-04-03T02:52:41;97318.88;;;4.87;87.21
39769;BME280;38939;47.824;14.642;2023-04-03T02:53:43;97318.56;;;4.90;86.98
39769;BME280;38939;47.824;14.642;2023-04-03T02:54:44;97326.03;;;4.93;87.32
39769;BME280;38939;47.824;14.642;2023-04-03T02:55:46;97323.22;;;4.86;87.23
39769;BME280;38939;47.824;14.642;2023-04-03T02:56:48;97324.66;;;4.80;87.74
39769;BME280;38939;47.824;14.642;2023-04-03T02:57:51;97319.66;;;4.79;87.18
39769;BME280;38939;47.824;14.642;2023-04-03T02:58:52;97325.78;;;4.78;87.32
39769;BME280;38939;47.824;14.642;2023-04-03T02:59:54;97321.75;;;4.75;87.57
39769;BME280;38939;47.824;14.642;2023-04-03T03:00:56;97321.75;;;4.75;87.74
39769;BME280;38939;47.824;14.642;2023-04-03T03:01:58;97324.00;;;4.78;87.75
39769;BME280;38939;47.824;14.642;2023-04-03T03:03:00;97323.56;;;4.83;87.82
39769;BME280;38939;47.824;14.642;2023-04-03T03:04:02;97322.28;;;4.87;87.11
39769;BME280;38939;47.824;14.642;2023-04-03T03:05:04;97322.59;;;4.92;87.16
39769;BME280;38939;47.824;14.642;2023-04-03T03:06:08;97324.25;;;4.93;87.35
39769;BME280;38939;47.824;14.642;2023-04-03T03:07:11;97324.38;;;4.92;86.86
39769;BME280;38939;47.824;14.642;2023-04-03T03:08:12;97321.00;;;4.91;86.94
39769;BME280;38939;47.824;14.642;2023-04-03T03:09:14;97323.75;;;4.90;87.00
39769;BME280;38939;47.824;14.642;2023-04-03T03:10:16;97329.06;;;4.88;87.00
39769;BME280;38939;47.824;14.642;2023-04-03T03:11:18;97324.69;;;4.89;86.96
39769;BME280;38939;47.824;14.642;2023-04-03T03:12:20;97324.25;;;4.93;86.98
39769;BME280;38939;47.824;14.642;2023-04-03T03:13:23;97325.56;;;4.97;87.11
39769;BME280;38939;47.824;14.642;2023-04-03T03:14:25;97323.47;;;5.01;87.05
39769;BME280;38939;47.824;14.642;2023-04-03T03:15:26;97318.13;;;5.03;86.52
39769;BME280;38939;47.824;14.642;2023-04-03T03:16:28;97323.16;;;5.04;86.57
39769;BME280;38939;47.824;14.642;2023-04-03T03:17:30;97315.53;;;5.03;86.15
39769;BME280;38939;47.824;14.642;2023-04-03T03:18:32;97317.78;;;4.97;86.08
39769;BME280;38939;47.824;14.642;2023-04-03T03:19:35;97323.91;;;4.96;86.36
39769;BME280;38939;47.824;14.642;2023-04-03T03:20:37;97322.31;;;4.95;86.38
39769;BME280;38939;47.824;14.642;2023-04-03T03:21:39;97322.81;;;4.99;86.90
39769;BME280;38939;47.824;14.642;2023-04-03T03:22:41;97323.28;;;5.03;86.47
39769;BME280;38939;47.824;14.642;2023-04-03T03:23:42;97317.03;;;5.05;86.83
39769;BME280;38939;47.824;14.642;2023-04-03T03:24:44;97324.59;;;5.07;86.78
39769;BME280;38939;47.824;14.642;2023-04-03T03:25:46;97319.44;;;5.07;86.33
39769;BME280;38939;47.824;14.642;2023-04-03T03:26:48;97322.00;;;5.07;86.34
39769;BME280;38939;47.824;14.642;2023-04-03T03:27:50;97317.69;;;5.07;86.01
39769;BME280;38939;47.824;14.642;2023-04-03T03:28:52;97317.50;;;5.09;86.31
39769;BME280;38939;47.824;14.642;2023-04-03T03:29:53;97318.94;;;5.03;86.23
39769;BME280;38939;47.824;14.642;2023-04-03T03:30:56;97317.81;;;5.06;85.59
39769;BME280;38939;47.824;14.642;2023-04-03T03:31:58;97316.84;;;5.07;86.22
39769;BME280;38939;47.824;14.642;2023-04-03T03:33:00;97320.09;;;5.09;85.76
39769;BME280;38939;47.824;14.642;2023-04-03T03:34:02;97315.72;;;5.01;85.93
39769;BME280;38939;47.824;14.642;2023-04-03T03:35:04;97312.47;;;4.99;85.78
39769;BME280;38939;47.824;14.642;2023-04-03T03:36:06;97317.13;;;4.95;85.86
39769;BME280;38939;47.824;14.642;2023-04-03T03:37:08;97322.31;;;4.95;85.83
39769;BME280;38939;47.824;14.642;2023-04-03T03:38:10;97311.66;;;4.98;86.46
39769;BME280;38939;47.824;14.642;2023-04-03T03:39:12;97317.47;;;5.00;86.30
39769;BME280;38939;47.824;14.642;2023-04-03T03:40:14;97314.88;;;5.00;86.19
39769;BME280;38939;47.824;14.642;2023-04-03T03:41:18;97313.28;;;4.99;86.85
39769;BME280;38939;47.824;14.642;2023-04-03T03:42:20;97312.28;;;5.00;86.92
39769;BME280;38939;47.824;14.642;2023-04-03T03:43:21;97310.34;;;5.03;86.17
39769;BME280;38939;47.824;14.642;2023-04-03T03:44:23;97313.28;;;4.99;86.17
39769;BME280;38939;47.824;14.642;2023-04-03T03:45:25;97311.00;;;4.96;86.43
39769;BME280;38939;47.824;14.642;2023-04-03T03:46:27;97318.91;;;4.95;86.43
39769;BME280;38939;47.824;14.642;2023-04-03T03:47:29;97316.34;;;4.95;86.67
39769;BME280;38939;47.824;14.642;2023-04-03T03:48:31;97316.34;;;4.95;86.41
39769;BME280;38939;47.824;14.642;2023-04-03T03:49:33;97319.72;;;4.95;86.89
39769;BME280;38939;47.824;14.642;2023-04-03T03:50:34;97313.44;;;4.98;86.70
39769;BME280;38939;47.824;14.642;2023-04-03T03:51:37;97313.13;;;5.01;86.93
39769;BME280;38939;47.824;14.642;2023-04-03T03:52:39;97312.94;;;5.03;86.85
39769;BME280;38939;47.824;14.642;2023-04-03T03:53:40;97315.88;;;4.99;86.94
39769;BME280;38939;47.824;14.642;2023-04-03T03:54:42;97313.56;;;4.96;86.67
39769;BME280;38939;47.824;14.642;2023-04-03T03:55:44;97316.78;;;4.90;87.03
39769;BME280;38939;47.824;14.642;2023-04-03T03:56:46;97315.00;;;4.91;87.37
39769;BME280;38939;47.824;14.642;2023-04-03T03:57:48;97306.78;;;4.95;87.26
39769;BME280;38939;47.824;14.642;2023-04-03T03:58:50;97309.38;;;4.95;87.47
39769;BME280;38939;47.824;14.642;2023-04-03T03:59:52;97312.59;;;4.89;87.40
39769;BME280;38939;47.824;14.642;2023-04-03T04:00:54;97314.97;;;4.82;87.11
39769;BME280;38939;47.824;14.642;2023-04-03T04:01:56;97311.72;;;4.80;87.26
39769;BME280;38939;47.824;14.642;2023-04-03T04:02:58;97304.81;;;4.81;87.68
39769;BME280;38939;47.824;14.642;2023-04-03T04:04:00;97310.78;;;4.81;87.25
39769;BME280;38939;47.824;14.642;2023-04-03T04:05:02;97310.78;;;4.81;87.74
39769;BME280;38939;47.824;14.642;2023-04-03T04:06:04;97308.66;;;4.77;87.44
39769;BME280;38939;47.824;14.642;2023-04-03T04:07:06;97304.78;;;4.73;87.48
39769;BME280;38939;47.824;14.642;2023-04-03T04:08:08;97310.59;;;4.75;87.46
39769;BME280;38939;47.824;14.642;2023-04-03T04:09:10;97308.66;;;4.77;87.06
39769;BME280;38939;47.824;14.642;2023-04-03T04:10:11;97303.78;;;4.74;87.42
39769;BME280;38939;47.824;14.642;2023-04-03T04:11:15;97310.88;;;4.72;87.34
39769;BME280;38939;47.824;14.642;2023-04-03T04:12:17;97307.03;;;4.76;87.34
39769;BME280;38939;47.824;14.642;2023-04-03T04:13:18;97306.56;;;4.80;87.15
39769;BME280;38939;47.824;14.642;2023-04-03T04:14:20;97311.44;;;4.84;87.56
39769;BME280;38939;47.824;14.642;2023-04-03T04:15:22;97305.28;;;4.85;86.73
39769;BME280;38939;47.824;14.642;2023-04-03T04:16:24;97307.41;;;4.89;87.26
39769;BME280;38939;47.824;14.642;2023-04-03T04:17:26;97308.53;;;4.87;86.79
39769;BME280;38939;47.824;14.642;2023-04-03T04:18:28;97312.09;;;4.86;86.73
39769;BME280;38939;47.824;14.642;2023-04-03T04:19:30;97313.53;;;4.88;86.87
39769;BME280;38939;47.824;14.642;2023-04-03T04:20:32;97303.19;;;4.88;86.82
39769;BME280;38939;47.824;14.642;2023-04-03T04:21:33;97315.19;;;4.89;86.66
39769;BME280;38939;47.824;14.642;2023-04-03T04:22:36;97316.13;;;4.88;86.83
39769;BME280;38939;47.824;14.642;2023-04-03T04:23:39;97310.31;;;4.86;86.60
39769;BME280;38939;47.824;14.642;2023-04-03T04:24:41;97310.97;;;4.88;86.99
39769;BME280;38939;47.824;14.642;2023-04-03T04:25:46;97310.16;;;4.88;86.86
39769;BME280;38939;47.824;14.642;2023-04-03T04:26:48;97308.03;;;4.83;86.17
39769;BME280;38939;47.824;14.642;2023-04-03T04:27:50;97310.44;;;4.85;86.37
39769;BME280;38939;47.824;14.642;2023-04-03T04:28:52;97309.50;;;4.86;86.21
39769;BME280;38939;47.824;14.642;2023-04-03T04:29:53;97314.34;;;4.89;85.95
39769;BME280;38939;47.824;14.642;2023-04-03T04:30:57;97312.59;;;4.89;85.84
39769;BME280;38939;47.824;14.642;2023-04-03T04:31:59;97308.38;;;4.88;85.70
39769;BME280;38939;47.824;14.642;2023-04-03T04:33:00;97306.59;;;4.89;85.68
39769;BME280;38939;47.824;14.642;2023-04-03T04:34:02;97314.66;;;4.86;85.72
39769;BME280;38939;47.824;14.642;2023-04-03T04:35:04;97314.00;;;4.84;85.35
39769;BME280;38939;47.824;14.642;2023-04-03T04:36:07;97311.44;;;4.84;85.79
39769;BME280;38939;47.824;14.642;2023-04-03T04:37:09;97314.00;;;4.84;85.42
39769;BME280;38939;47.824;14.642;2023-04-03T04:38:11;97314.81;;;4.84;85.23
39769;BME280;38939;47.824;14.642;2023-04-03T04:39:13;97317.41;;;4.84;85.10
39769;BME280;38939;47.824;14.642;2023-04-03T04:40:14;97314.81;;;4.84;85.46
39769;BME280;38939;47.824;14.642;2023-04-03T04:41:16;97318.69;;;4.80;84.72
39769;BME280;38939;47.824;14.642;2023-04-03T04:42:19;97315.44;;;4.78;84.59
39769;BME280;38939;47.824;14.642;2023-04-03T04:43:21;97315.44;;;4.78;85.06
39769;BME280;38939;47.824;14.642;2023-04-03T04:44:22;97324.84;;;4.79;84.86
39769;BME280;38939;47.824;14.642;2023-04-03T04:45:24;97317.72;;;4.81;85.02
39769;BME280;38939;47.824;14.642;2023-04-03T04:46:26;97320.97;;;4.83;85.14
39769;BME280;38939;47.824;14.642;2023-04-03T04:47:28;97320.66;;;4.86;84.83
39769;BME280;38939;47.824;14.642;2023-04-03T04:48:31;97323.22;;;4.86;84.98
39769;BME280;38939;47.824;14.642;2023-04-03T04:49:33;97330.84;;;4.88;85.14
39769;BME280;38939;47.824;14.642;2023-04-03T04:50:35;97331.34;;;4.91;85.28
39769;BME280;38939;47.824;14.642;2023-04-03T04:51:37;97328.75;;;4.91;84.74
39769;BME280;38939;47.824;14.642;2023-04-03T04:52:52;97330.50;;;4.91;84.86
39769;BME280;38939;47.824;14.642;2023-04-03T04:53:54;97323.75;;;4.90;84.89
39769;BME280;38939;47.824;14.642;2023-04-03T04:54:56;97326.19;;;4.91;84.98
39769;BME280;38939;47.824;14.642;2023-04-03T04:55:58;97324.38;;;4.92;85.03
39769;BME280;38939;47.824;14.642;2023-04-03T04:57:00;97324.25;;;4.93;84.79
39769;BME280;38939;47.824;14.642;2023-04-03T04:58:02;97331.97;;;4.85;84.42
39769;BME280;38939;47.824;14.642;2023-04-03T04:59:03;97328.38;;;4.78;83.90
39769;BME280;38939;47.824;14.642;2023-04-03T05:00:05;97332.88;;;4.76;83.95
39769;BME280;38939;47.824;14.642;2023-04-03T05:01:08;97331.28;;;4.75;83.67
39769;BME280;38939;47.824;14.642;2023-04-03T05:02:10;97326.41;;;4.72;83.66
39769;BME280;38939;47.824;14.642;2023-04-03T05:03:12;97335.94;;;4.71;83.96
39769;BME280;38939;47.824;14.642;2023-04-03T05:04:14;97326.72;;;4.69;83.25
39769;BME280;38939;47.824;14.642;2023-04-03T05:05:16;97324.78;;;4.71;83.69
39769;BME280;38939;47.824;14.642;2023-04-03T05:06:18;97322.22;;;4.71;83.49
39769;BME280;38939;47.824;14.642;2023-04-03T05:07:20;97324.78;;;4.71;83.61
39769;BME280;38939;47.824;14.642;2023-04-03T05:08:22;97328.03;;;4.73;83.80
39769;BME280;38939;47.824;14.642;2023-04-03T05:09:24;97329.34;;;4.77;83.89
39769;BME280;38939;47.824;14.642;2023-04-03T05:10:25;97329.16;;;4.78;83.99
39769;BME280;38939;47.824;14.642;2023-04-03T05:11:27;97330.94;;;4.78;83.69
39769;BME280;38939;47.824;14.642;2023-04-03T05:12:29;97326.75;;;4.77;83.78
39769;BME280;38939;47.824;14.642;2023-04-03T05:13:31;97334.34;;;4.78;83.75
39769;BME280;38939;47.824;14.642;2023-04-03T05:14:33;97334.03;;;4.81;83.69
39769;BME280;38939;47.824;14.642;2023-04-03T05:15:35;97341.16;;;4.79;83.48
39769;BME280;38939;47.824;14.642;2023-04-03T05:16:37;97343.72;;;4.79;83.35
39769;BME280;38939;47.824;14.642;2023-04-03T05:17:39;97338.06;;;4.76;82.48
39769;BME280;38939;47.824;14.642;2023-04-03T05:18:41;97338.38;;;4.73;82.54
39769;BME280;38939;47.824;14.642;2023-04-03T05:19:42;97337.88;;;4.69;82.37
39769;BME280;38939;47.824;14.642;2023-04-03T05:20:44;97344.97;;;4.67;82.67
39769;BME280;38939;47.824;14.642;2023-04-03T05:21:46;97345.09;;;4.66;82.45
39769;BME280;38939;47.824;14.642;2023-04-03T05:22:48;97340.84;;;4.56;81.78
39769;BME280;38939;47.824;14.642;2023-04-03T05:23:50;97354.13;;;4.61;82.40
39769;BME280;38939;47.824;14.642;2023-04-03T05:24:52;97346.22;;;4.63;82.43
39769;BME280;38939;47.824;14.642;2023-04-03T05:25:54;97345.25;;;4.64;82.51
39769;BME280;38939;47.824;14.642;2023-04-03T05:26:56;97349.63;;;4.64;82.22
39769;BME280;38939;47.824;14.642;2023-04-03T05:27:58;97352.19;;;4.64;82.28
39769;BME280;38939;47.824;14.642;2023-04-03T05:29:00;97349.75;;;4.62;81.87
39769;BME280;38939;47.824;14.642;2023-04-03T05:30:02;97355.41;;;4.57;81.65
39769;BME280;38939;47.824;14.642;2023-04-03T05:31:04;97359.44;;;4.60;81.58
39769;BME280;38939;47.824;14.642;2023-04-03T05:32:06;97355.09;;;4.60;81.85
39769;BME280;38939;47.824;14.642;2023-04-03T05:33:08;97354.28;;;4.60;81.41
39769;BME280;38939;47.824;14.642;2023-04-03T05:34:10;97356.72;;;4.61;81.59
39769;BME280;38939;47.824;14.642;2023-04-03T05:35:11;97358.28;;;4.54;81.37